sensor_id;sensor_type;location;lat;lon;timestamp;P1;durP1;ratioP1;P2;durP2;ratioP2
15327;SDS011;7764;51.430;6.840;2024-03-08T00:00:34;30.03;;;21.33;;
15327;SDS011;7764;51.430;6.840;2024-03-08T00:03:03;32.40;;;22.07;;
15327;SDS011;7764;51.430;6.840;2024-03-08T00:05:30;32.17;;;22.63;;
15327;SDS011;7764;51.430;6.840;2024-03-08T00:07:57;33.83;;;22.77;;
15327;SDS011;7764;51.430;6.840;2024-03-08T00:10:25;36.57;;;23.47;;
15327;SDS011;7764;51.430;6.840;2024-03-08T00:12:53;34.20;;;23.70;;
15327;SDS011;7764;51.430;6.840;2024-03-08T00:15:22;34.27;;;22.77;;
15327;SDS011;7764;51.430;6.840;2024-03-08T00:17:49;32.67;;;22.37;;
15327;SDS011;7764;51.430;6.840;2024-03-08T00:20:16;32.07;;;22.30;;
15327;SDS011;7764;51.430;6.840;2024-03-08T00:22:43;33.70;;;22.63;;
15327;SDS011;7764;51.430;6.840;2024-03-08T00:25:11;34.73;;;22.60;;
15327;SDS011;7764;51.430;6.840;2024-03-08T00:27:37;34.67;;;22.63;;
15327;SDS011;7764;51.430;6.840;2024-03-08T00:30:06;33.17;;;21.87;;
15327;SDS011;7764;51.430;6.840;2024-03-08T00:32:35;31.97;;;22.30;;
15327;SDS011;7764;51.430;6.840;2024-03-08T00:35:02;35.33;;;22.73;;
15327;SDS011;7764;51.430;6.840;2024-03-08T00:37:32;34.30;;;23.07;;
15327;SDS011;7764;51.430;6.840;2024-03-08T00:40:00;35.03;;;23.47;;
15327;SDS011;7764;51.430;6.840;2024-03-08T00:42:27;31.57;;;22.30;;
15327;SDS011;7764;51.430;6.840;2024-03-08T00:44:54;32.37;;;22.63;;
15327;SDS011;7764;51.430;6.840;2024-03-08T00:47:23;34.03;;;22.97;;
15327;SDS011;7764;51.430;6.840;2024-03-08T00:49:51;32.77;;;22.13;;
15327;SDS011;7764;51.430;6.840;2024-03-08T00:52:18;30.73;;;21.73;;
15327;SDS011;7764;51.430;6.840;2024-03-08T00:54:45;32.20;;;22.77;;
15327;SDS011;7764;51.430;6.840;2024-03-08T00:57:11;34.97;;;23.53;;
15327;SDS011;7764;51.430;6.840;2024-03-08T00:59:39;36.03;;;23.53;;
15327;SDS011;7764;51.430;6.840;2024-03-08T01:02:05;33.13;;;22.83;;
15327;SDS011;7764;51.430;6.840;2024-03-08T01:04:34;34.40;;;22.73;;
15327;SDS011;7764;51.430;6.840;2024-03-08T01:07:02;37.67;;;23.83;;
15327;SDS011;7764;51.430;6.840;2024-03-08T01:09:29;34.63;;;23.80;;
15327;SDS011;7764;51.430;6.840;2024-03-08T01:11:55;35.57;;;23.50;;
15327;SDS011;7764;51.430;6.840;2024-03-08T01:14:23;33.87;;;23.37;;
15327;SDS011;7764;51.430;6.840;2024-03-08T01:16:50;33.07;;;24.20;;
15327;SDS011;7764;51.430;6.840;2024-03-08T01:19:18;34.53;;;22.87;;
15327;SDS011;7764;51.430;6.840;2024-03-08T01:21:44;34.50;;;23.23;;
15327;SDS011;7764;51.430;6.840;2024-03-08T01:24:13;33.03;;;22.37;;
15327;SDS011;7764;51.430;6.840;2024-03-08T01:26:39;37.27;;;24.63;;
15327;SDS011;7764;51.430;6.840;2024-03-08T01:29:06;35.70;;;24.00;;
15327;SDS011;7764;51.430;6.840;2024-03-08T01:31:33;33.80;;;23.30;;
15327;SDS011;7764;51.430;6.840;2024-03-08T01:34:01;39.57;;;24.37;;
15327;SDS011;7764;51.430;6.840;2024-03-08T01:36:28;34.73;;;24.20;;
15327;SDS011;7764;51.430;6.840;2024-03-08T01:38:55;36.97;;;24.10;;
15327;SDS011;7764;51.430;6.840;2024-03-08T01:41:24;38.40;;;25.57;;
15327;SDS011;7764;51.430;6.840;2024-03-08T01:43:54;36.47;;;24.03;;
15327;SDS011;7764;51.430;6.840;2024-03-08T01:46:21;38.33;;;24.60;;
15327;SDS011;7764;51.430;6.840;2024-03-08T01:48:48;36.90;;;24.43;;
15327;SDS011;7764;51.430;6.840;2024-03-08T01:51:17;36.57;;;24.70;;
15327;SDS011;7764;51.430;6.840;2024-03-08T01:53:44;35.70;;;24.20;;
15327;SDS011;7764;51.430;6.840;2024-03-08T01:56:13;36.33;;;24.97;;
15327;SDS011;7764;51.430;6.840;2024-03-08T01:58:41;39.77;;;24.47;;
15327;SDS011;7764;51.430;6.840;2024-03-08T02:01:09;33.13;;;23.07;;
15327;SDS011;7764;51.430;6.840;2024-03-08T02:03:39;36.43;;;24.50;;
15327;SDS011;7764;51.430;6.840;2024-03-08T02:06:09;36.53;;;24.23;;
15327;SDS011;7764;51.430;6.840;2024-03-08T02:08:38;37.67;;;24.43;;
15327;SDS011;7764;51.430;6.840;2024-03-08T02:11:05;39.90;;;25.47;;
15327;SDS011;7764;51.430;6.840;2024-03-08T02:13:32;34.67;;;24.20;;
15327;SDS011;7764;51.430;6.840;2024-03-08T02:16:00;36.27;;;23.87;;
15327;SDS011;7764;51.430;6.840;2024-03-08T02:18:28;36.30;;;24.00;;
15327;SDS011;7764;51.430;6.840;2024-03-08T02:20:57;40.57;;;26.40;;
15327;SDS011;7764;51.430;6.840;2024-03-08T02:23:25;36.80;;;24.03;;
15327;SDS011;7764;51.430;6.840;2024-03-08T02:25:53;36.47;;;24.50;;
15327;SDS011;7764;51.430;6.840;2024-03-08T02:28:21;38.07;;;25.17;;
15327;SDS011;7764;51.430;6.840;2024-03-08T02:30:49;37.77;;;24.23;;
15327;SDS011;7764;51.430;6.840;2024-03-08T02:33:19;36.17;;;24.43;;
15327;SDS011;7764;51.430;6.840;2024-03-08T02:35:46;39.33;;;25.57;;
15327;SDS011;7764;51.430;6.840;2024-03-08T02:38:15;39.07;;;24.87;;
15327;SDS011;7764;51.430;6.840;2024-03-08T02:40:44;36.13;;;24.40;;
15327;SDS011;7764;51.430;6.840;2024-03-08T02:43:11;38.80;;;25.67;;
15327;SDS011;7764;51.430;6.840;2024-03-08T02:45:39;36.70;;;24.73;;
15327;SDS011;7764;51.430;6.840;2024-03-08T02:48:07;39.27;;;25.20;;
15327;SDS011;7764;51.430;6.840;2024-03-08T02:50:34;35.80;;;24.40;;
15327;SDS011;7764;51.430;6.840;2024-03-08T02:53:01;36.83;;;24.93;;
15327;SDS011;7764;51.430;6.840;2024-03-08T02:55:30;40.53;;;25.87;;
15327;SDS011;7764;51.430;6.840;2024-03-08T02:57:58;38.17;;;25.17;;
15327;SDS011;7764;51.430;6.840;2024-03-08T03:00:25;39.53;;;25.50;;
15327;SDS011;7764;51.430;6.840;2024-03-08T03:02:52;40.23;;;24.83;;
15327;SDS011;7764;51.430;6.840;2024-03-08T03:05:19;40.67;;;25.40;;
15327;SDS011;7764;51.430;6.840;2024-03-08T03:07:46;39.47;;;24.57;;
15327;SDS011;7764;51.430;6.840;2024-03-08T03:10:13;38.50;;;25.53;;
15327;SDS011;7764;51.430;6.840;2024-03-08T03:12:43;40.87;;;25.37;;
15327;SDS011;7764;51.430;6.840;2024-03-08T03:15:10;37.57;;;24.87;;
15327;SDS011;7764;51.430;6.840;2024-03-08T03:17:38;39.40;;;25.63;;
15327;SDS011;7764;51.430;6.840;2024-03-08T03:20:05;38.80;;;25.40;;
15327;SDS011;7764;51.430;6.840;2024-03-08T03:22:38;39.77;;;25.17;;
15327;SDS011;7764;51.430;6.840;2024-03-08T03:25:06;39.90;;;25.90;;
15327;SDS011;7764;51.430;6.840;2024-03-08T03:27:34;38.57;;;25.67;;
15327;SDS011;7764;51.430;6.840;2024-03-08T03:30:03;37.93;;;25.73;;
15327;SDS011;7764;51.430;6.840;2024-03-08T03:32:58;39.00;;;25.67;;
15327;SDS011;7764;51.430;6.840;2024-03-08T03:35:25;42.33;;;26.03;;
15327;SDS011;7764;51.430;6.840;2024-03-08T03:37:52;41.57;;;25.63;;
15327;SDS011;7764;51.430;6.840;2024-03-08T03:40:27;42.33;;;26.87;;
15327;SDS011;7764;51.430;6.840;2024-03-08T03:42:54;39.23;;;26.23;;
15327;SDS011;7764;51.430;6.840;2024-03-08T03:45:21;36.13;;;25.00;;
15327;SDS011;7764;51.430;6.840;2024-03-08T03:47:48;41.00;;;25.90;;
15327;SDS011;7764;51.430;6.840;2024-03-08T03:50:16;40.80;;;26.70;;
15327;SDS011;7764;51.430;6.840;2024-03-08T03:52:44;40.33;;;26.53;;
15327;SDS011;7764;51.430;6.840;2024-03-08T03:55:11;40.10;;;26.47;;
15327;SDS011;7764;51.430;6.840;2024-03-08T03:57:38;41.97;;;26.37;;
15327;SDS011;7764;51.430;6.840;2024-03-08T04:00:06;41.67;;;26.80;;
15327;SDS011;7764;51.430;6.840;2024-03-08T04:02:35;44.13;;;27.80;;
15327;SDS011;7764;51.430;6.840;2024-03-08T04:05:03;43.90;;;26.87;;
15327;SDS011;7764;51.430;6.840;2024-03-08T04:07:32;41.73;;;27.40;;
15327;SDS011;7764;51.430;6.840;2024-03-08T04:09:59;41.17;;;27.50;;
15327;SDS011;7764;51.430;6.840;2024-03-08T04:12:26;42.03;;;26.10;;
15327;SDS011;7764;51.430;6.840;2024-03-08T04:14:54;44.80;;;27.17;;
15327;SDS011;7764;51.430;6.840;2024-03-08T04:17:21;40.13;;;26.10;;
15327;SDS011;7764;51.430;6.840;2024-03-08T04:19:49;40.83;;;26.03;;
15327;SDS011;7764;51.430;6.840;2024-03-08T04:22:15;39.40;;;25.90;;
15327;SDS011;7764;51.430;6.840;2024-03-08T04:24:44;39.60;;;25.30;;
15327;SDS011;7764;51.430;6.840;2024-03-08T04:27:11;44.33;;;27.77;;
15327;SDS011;7764;51.430;6.840;2024-03-08T04:29:39;44.90;;;28.20;;
15327;SDS011;7764;51.430;6.840;2024-03-08T04:32:06;41.83;;;26.13;;
15327;SDS011;7764;51.430;6.840;2024-03-08T04:34:33;44.97;;;30.67;;
15327;SDS011;7764;51.430;6.840;2024-03-08T04:37:01;39.57;;;25.43;;
15327;SDS011;7764;51.430;6.840;2024-03-08T04:39:29;41.30;;;25.53;;
15327;SDS011;7764;51.430;6.840;2024-03-08T04:41:59;45.93;;;27.40;;
15327;SDS011;7764;51.430;6.840;2024-03-08T04:44:29;45.40;;;27.60;;
15327;SDS011;7764;51.430;6.840;2024-03-08T04:46:56;42.43;;;26.37;;
15327;SDS011;7764;51.430;6.840;2024-03-08T04:49:23;40.60;;;26.97;;
15327;SDS011;7764;51.430;6.840;2024-03-08T04:51:50;38.93;;;26.27;;
15327;SDS011;7764;51.430;6.840;2024-03-08T04:54:17;42.83;;;25.67;;
15327;SDS011;7764;51.430;6.840;2024-03-08T04:56:44;42.53;;;26.13;;
15327;SDS011;7764;51.430;6.840;2024-03-08T04:59:12;41.97;;;26.53;;
15327;SDS011;7764;51.430;6.840;2024-03-08T05:01:39;39.73;;;25.70;;
15327;SDS011;7764;51.430;6.840;2024-03-08T05:04:06;42.13;;;27.57;;
15327;SDS011;7764;51.430;6.840;2024-03-08T05:06:33;47.83;;;27.77;;
15327;SDS011;7764;51.430;6.840;2024-03-08T05:08:59;40.73;;;25.93;;
15327;SDS011;7764;51.430;6.840;2024-03-08T05:11:30;43.57;;;26.13;;
15327;SDS011;7764;51.430;6.840;2024-03-08T05:13:56;42.57;;;26.83;;
15327;SDS011;7764;51.430;6.840;2024-03-08T05:16:25;44.27;;;27.17;;
15327;SDS011;7764;51.430;6.840;2024-03-08T05:18:52;39.57;;;26.33;;
15327;SDS011;7764;51.430;6.840;2024-03-08T05:21:19;41.97;;;26.43;;
15327;SDS011;7764;51.430;6.840;2024-03-08T05:23:46;47.47;;;26.97;;
15327;SDS011;7764;51.430;6.840;2024-03-08T05:26:15;44.17;;;27.70;;
15327;SDS011;7764;51.430;6.840;2024-03-08T05:28:42;44.70;;;26.93;;
15327;SDS011;7764;51.430;6.840;2024-03-08T05:31:09;47.17;;;27.37;;
15327;SDS011;7764;51.430;6.840;2024-03-08T05:33:38;46.90;;;28.20;;
15327;SDS011;7764;51.430;6.840;2024-03-08T05:36:07;45.60;;;27.67;;
15327;SDS011;7764;51.430;6.840;2024-03-08T05:38:36;41.63;;;26.93;;
15327;SDS011;7764;51.430;6.840;2024-03-08T05:41:03;46.07;;;27.57;;
15327;SDS011;7764;51.430;6.840;2024-03-08T05:43:32;46.03;;;28.13;;
15327;SDS011;7764;51.430;6.840;2024-03-08T05:45:59;50.33;;;30.33;;
15327;SDS011;7764;51.430;6.840;2024-03-08T05:48:26;60.47;;;34.00;;
15327;SDS011;7764;51.430;6.840;2024-03-08T05:50:55;62.27;;;35.93;;
15327;SDS011;7764;51.430;6.840;2024-03-08T05:53:22;60.10;;;34.50;;
15327;SDS011;7764;51.430;6.840;2024-03-08T05:55:49;51.00;;;30.27;;
15327;SDS011;7764;51.430;6.840;2024-03-08T05:58:16;47.23;;;29.37;;
15327;SDS011;7764;51.430;6.840;2024-03-08T06:00:43;49.13;;;28.37;;
15327;SDS011;7764;51.430;6.840;2024-03-08T06:03:11;46.07;;;28.30;;
15327;SDS011;7764;51.430;6.840;2024-03-08T06:05:38;45.67;;;28.57;;
15327;SDS011;7764;51.430;6.840;2024-03-08T06:08:08;46.63;;;29.23;;
15327;SDS011;7764;51.430;6.840;2024-03-08T06:10:36;45.43;;;28.97;;
15327;SDS011;7764;51.430;6.840;2024-03-08T06:13:04;47.63;;;28.90;;
15327;SDS011;7764;51.430;6.840;2024-03-08T06:15:31;49.77;;;30.17;;
15327;SDS011;7764;51.430;6.840;2024-03-08T06:17:59;49.53;;;29.27;;
15327;SDS011;7764;51.430;6.840;2024-03-08T06:20:27;44.20;;;26.90;;
15327;SDS011;7764;51.430;6.840;2024-03-08T06:22:55;45.43;;;27.50;;
15327;SDS011;7764;51.430;6.840;2024-03-08T06:25:23;45.77;;;28.17;;
15327;SDS011;7764;51.430;6.840;2024-03-08T06:27:50;48.27;;;28.20;;
15327;SDS011;7764;51.430;6.840;2024-03-08T06:30:18;44.40;;;28.07;;
15327;SDS011;7764;51.430;6.840;2024-03-08T06:32:45;48.43;;;28.73;;
15327;SDS011;7764;51.430;6.840;2024-03-08T06:35:12;45.17;;;28.30;;
15327;SDS011;7764;51.430;6.840;2024-03-08T06:37:41;46.50;;;27.67;;
15327;SDS011;7764;51.430;6.840;2024-03-08T06:40:09;44.43;;;27.53;;
15327;SDS011;7764;51.430;6.840;2024-03-08T06:42:40;46.83;;;28.47;;
15327;SDS011;7764;51.430;6.840;2024-03-08T06:45:08;47.67;;;29.20;;
15327;SDS011;7764;51.430;6.840;2024-03-08T06:47:35;44.67;;;27.83;;
15327;SDS011;7764;51.430;6.840;2024-03-08T06:50:06;45.20;;;28.20;;
15327;SDS011;7764;51.430;6.840;2024-03-08T06:52:34;44.63;;;27.93;;
15327;SDS011;7764;51.430;6.840;2024-03-08T06:55:01;47.83;;;29.67;;
15327;SDS011;7764;51.430;6.840;2024-03-08T06:57:30;44.10;;;29.17;;
15327;SDS011;7764;51.430;6.840;2024-03-08T06:59:58;42.07;;;28.63;;
15327;SDS011;7764;51.430;6.840;2024-03-08T07:02:26;46.30;;;29.43;;
15327;SDS011;7764;51.430;6.840;2024-03-08T07:04:53;45.07;;;29.83;;
15327;SDS011;7764;51.430;6.840;2024-03-08T07:07:21;47.57;;;29.80;;
15327;SDS011;7764;51.430;6.840;2024-03-08T07:09:48;45.80;;;29.03;;
15327;SDS011;7764;51.430;6.840;2024-03-08T07:12:16;46.27;;;29.93;;
15327;SDS011;7764;51.430;6.840;2024-03-08T07:14:43;45.77;;;29.53;;
15327;SDS011;7764;51.430;6.840;2024-03-08T07:17:12;43.87;;;29.17;;
15327;SDS011;7764;51.430;6.840;2024-03-08T07:19:39;44.93;;;28.27;;
15327;SDS011;7764;51.430;6.840;2024-03-08T07:22:06;47.03;;;29.40;;
15327;SDS011;7764;51.430;6.840;2024-03-08T07:24:34;42.90;;;28.43;;
15327;SDS011;7764;51.430;6.840;2024-03-08T07:27:21;42.47;;;28.10;;
15327;SDS011;7764;51.430;6.840;2024-03-08T07:29:48;42.57;;;27.83;;
15327;SDS011;7764;51.430;6.840;2024-03-08T07:32:16;41.73;;;28.57;;
15327;SDS011;7764;51.430;6.840;2024-03-08T07:34:46;44.30;;;28.33;;
15327;SDS011;7764;51.430;6.840;2024-03-08T07:37:14;43.23;;;28.70;;
15327;SDS011;7764;51.430;6.840;2024-03-08T07:39:41;41.27;;;27.83;;
15327;SDS011;7764;51.430;6.840;2024-03-08T07:42:09;40.23;;;28.23;;
15327;SDS011;7764;51.430;6.840;2024-03-08T07:44:37;43.40;;;28.60;;
15327;SDS011;7764;51.430;6.840;2024-03-08T07:47:05;46.63;;;28.80;;
15327;SDS011;7764;51.430;6.840;2024-03-08T07:49:36;43.27;;;29.73;;
15327;SDS011;7764;51.430;6.840;2024-03-08T07:52:03;44.27;;;28.20;;
15327;SDS011;7764;51.430;6.840;2024-03-08T07:54:32;47.77;;;30.33;;
15327;SDS011;7764;51.430;6.840;2024-03-08T07:57:00;44.27;;;28.17;;
15327;SDS011;7764;51.430;6.840;2024-03-08T07:59:28;44.10;;;28.37;;
15327;SDS011;7764;51.430;6.840;2024-03-08T08:01:55;46.10;;;29.43;;
15327;SDS011;7764;51.430;6.840;2024-03-08T08:04:22;45.50;;;29.10;;
15327;SDS011;7764;51.430;6.840;2024-03-08T08:06:53;42.90;;;28.53;;
15327;SDS011;7764;51.430;6.840;2024-03-08T08:09:21;48.67;;;29.70;;
15327;SDS011;7764;51.430;6.840;2024-03-08T08:11:59;48.27;;;28.80;;
15327;SDS011;7764;51.430;6.840;2024-03-08T08:14:27;39.27;;;27.00;;
15327;SDS011;7764;51.430;6.840;2024-03-08T08:16:54;39.30;;;26.97;;
15327;SDS011;7764;51.430;6.840;2024-03-08T08:19:22;43.37;;;26.87;;
15327;SDS011;7764;51.430;6.840;2024-03-08T08:21:53;42.77;;;27.20;;
15327;SDS011;7764;51.430;6.840;2024-03-08T08:24:20;37.77;;;25.70;;
15327;SDS011;7764;51.430;6.840;2024-03-08T08:26:48;37.10;;;24.43;;
15327;SDS011;7764;51.430;6.840;2024-03-08T08:29:15;44.10;;;26.30;;
15327;SDS011;7764;51.430;6.840;2024-03-08T08:31:42;38.20;;;24.60;;
15327;SDS011;7764;51.430;6.840;2024-03-08T08:34:11;36.53;;;24.77;;
15327;SDS011;7764;51.430;6.840;2024-03-08T08:36:39;36.83;;;24.10;;
15327;SDS011;7764;51.430;6.840;2024-03-08T08:39:07;35.57;;;23.97;;
15327;SDS011;7764;51.430;6.840;2024-03-08T08:41:38;35.17;;;21.30;;
15327;SDS011;7764;51.430;6.840;2024-03-08T08:44:06;38.00;;;23.37;;
15327;SDS011;7764;51.430;6.840;2024-03-08T08:46:35;33.93;;;23.07;;
15327;SDS011;7764;51.430;6.840;2024-03-08T08:49:02;38.73;;;22.33;;
15327;SDS011;7764;51.430;6.840;2024-03-08T08:51:30;35.57;;;23.37;;
15327;SDS011;7764;51.430;6.840;2024-03-08T08:53:58;34.53;;;23.10;;
15327;SDS011;7764;51.430;6.840;2024-03-08T08:56:29;36.50;;;23.10;;
15327;SDS011;7764;51.430;6.840;2024-03-08T08:58:57;33.67;;;22.67;;
15327;SDS011;7764;51.430;6.840;2024-03-08T09:01:24;31.83;;;20.23;;
15327;SDS011;7764;51.430;6.840;2024-03-08T09:03:51;33.67;;;22.07;;
15327;SDS011;7764;51.430;6.840;2024-03-08T09:06:19;36.50;;;23.37;;
15327;SDS011;7764;51.430;6.840;2024-03-08T09:08:46;36.00;;;23.07;;
15327;SDS011;7764;51.430;6.840;2024-03-08T09:11:13;34.73;;;23.60;;
15327;SDS011;7764;51.430;6.840;2024-03-08T09:13:43;36.47;;;23.30;;
15327;SDS011;7764;51.430;6.840;2024-03-08T09:16:11;40.93;;;25.83;;
15327;SDS011;7764;51.430;6.840;2024-03-08T09:18:38;37.93;;;24.13;;
15327;SDS011;7764;51.430;6.840;2024-03-08T09:21:06;38.50;;;25.23;;
15327;SDS011;7764;51.430;6.840;2024-03-08T09:23:35;37.43;;;24.57;;
15327;SDS011;7764;51.430;6.840;2024-03-08T09:26:05;34.37;;;23.80;;
15327;SDS011;7764;51.430;6.840;2024-03-08T09:28:34;37.73;;;25.17;;
15327;SDS011;7764;51.430;6.840;2024-03-08T09:31:02;37.87;;;24.13;;
15327;SDS011;7764;51.430;6.840;2024-03-08T09:33:30;38.00;;;23.20;;
15327;SDS011;7764;51.430;6.840;2024-03-08T09:35:57;35.20;;;23.20;;
15327;SDS011;7764;51.430;6.840;2024-03-08T09:38:24;36.83;;;23.67;;
15327;SDS011;7764;51.430;6.840;2024-03-08T09:40:52;38.30;;;24.83;;
15327;SDS011;7764;51.430;6.840;2024-03-08T09:43:21;38.73;;;24.57;;
15327;SDS011;7764;51.430;6.840;2024-03-08T09:45:49;31.83;;;20.73;;
15327;SDS011;7764;51.430;6.840;2024-03-08T09:48:18;35.70;;;23.80;;
15327;SDS011;7764;51.430;6.840;2024-03-08T09:50:45;37.37;;;24.40;;
15327;SDS011;7764;51.430;6.840;2024-03-08T09:53:14;36.60;;;23.17;;
15327;SDS011;7764;51.430;6.840;2024-03-08T09:55:42;38.27;;;24.37;;
15327;SDS011;7764;51.430;6.840;2024-03-08T09:58:11;33.27;;;23.13;;
15327;SDS011;7764;51.430;6.840;2024-03-08T10:01:02;32.17;;;22.00;;
15327;SDS011;7764;51.430;6.840;2024-03-08T10:03:31;32.77;;;23.13;;
15327;SDS011;7764;51.430;6.840;2024-03-08T10:05:58;33.03;;;21.13;;
15327;SDS011;7764;51.430;6.840;2024-03-08T10:08:26;31.90;;;22.53;;
15327;SDS011;7764;51.430;6.840;2024-03-08T10:10:55;33.77;;;22.17;;
15327;SDS011;7764;51.430;6.840;2024-03-08T10:13:23;31.37;;;20.93;;
15327;SDS011;7764;51.430;6.840;2024-03-08T10:15:51;32.67;;;21.43;;
15327;SDS011;7764;51.430;6.840;2024-03-08T10:18:19;34.37;;;22.60;;
15327;SDS011;7764;51.430;6.840;2024-03-08T10:20:47;32.90;;;21.60;;
15327;SDS011;7764;51.430;6.840;2024-03-08T10:23:30;32.07;;;22.10;;
15327;SDS011;7764;51.430;6.840;2024-03-08T10:25:57;32.93;;;22.20;;
15327;SDS011;7764;51.430;6.840;2024-03-08T10:28:24;34.83;;;21.20;;
15327;SDS011;7764;51.430;6.840;2024-03-08T10:30:52;30.50;;;20.10;;
15327;SDS011;7764;51.430;6.840;2024-03-08T10:33:19;33.13;;;22.23;;
15327;SDS011;7764;51.430;6.840;2024-03-08T10:35:47;30.90;;;21.97;;
15327;SDS011;7764;51.430;6.840;2024-03-08T10:38:15;31.37;;;20.70;;
15327;SDS011;7764;51.430;6.840;2024-03-08T10:40:43;29.47;;;20.57;;
15327;SDS011;7764;51.430;6.840;2024-03-08T10:43:14;31.53;;;21.17;;
15327;SDS011;7764;51.430;6.840;2024-03-08T10:45:43;32.67;;;21.87;;
15327;SDS011;7764;51.430;6.840;2024-03-08T10:48:17;32.63;;;21.63;;
15327;SDS011;7764;51.430;6.840;2024-03-08T10:50:50;28.80;;;20.80;;
15327;SDS011;7764;51.430;6.840;2024-03-08T10:53:19;30.77;;;20.47;;
15327;SDS011;7764;51.430;6.840;2024-03-08T10:55:47;30.37;;;19.60;;
15327;SDS011;7764;51.430;6.840;2024-03-08T10:58:18;31.13;;;20.73;;
15327;SDS011;7764;51.430;6.840;2024-03-08T11:00:46;34.33;;;22.70;;
15327;SDS011;7764;51.430;6.840;2024-03-08T11:05:58;31.90;;;19.93;;
15327;SDS011;7764;51.430;6.840;2024-03-08T11:08:26;29.77;;;20.50;;
15327;SDS011;7764;51.430;6.840;2024-03-08T11:10:53;29.57;;;20.17;;
15327;SDS011;7764;51.430;6.840;2024-03-08T11:13:33;29.53;;;19.43;;
15327;SDS011;7764;51.430;6.840;2024-03-08T11:16:00;29.03;;;20.47;;
15327;SDS011;7764;51.430;6.840;2024-03-08T11:18:31;27.90;;;19.13;;
15327;SDS011;7764;51.430;6.840;2024-03-08T11:21:02;28.73;;;19.53;;
15327;SDS011;7764;51.430;6.840;2024-03-08T11:23:31;30.10;;;20.37;;
15327;SDS011;7764;51.430;6.840;2024-03-08T11:25:59;29.70;;;20.03;;
15327;SDS011;7764;51.430;6.840;2024-03-08T11:28:26;29.47;;;19.63;;
15327;SDS011;7764;51.430;6.840;2024-03-08T11:33:40;30.53;;;20.97;;
15327;SDS011;7764;51.430;6.840;2024-03-08T11:36:11;34.00;;;23.43;;
15327;SDS011;7764;51.430;6.840;2024-03-08T11:38:41;34.17;;;23.63;;
15327;SDS011;7764;51.430;6.840;2024-03-08T11:41:09;34.10;;;24.03;;
15327;SDS011;7764;51.430;6.840;2024-03-08T11:43:39;31.93;;;23.07;;
15327;SDS011;7764;51.430;6.840;2024-03-08T11:46:09;33.83;;;23.13;;
15327;SDS011;7764;51.430;6.840;2024-03-08T11:48:37;32.73;;;22.83;;
15327;SDS011;7764;51.430;6.840;2024-03-08T11:51:06;41.77;;;24.20;;
15327;SDS011;7764;51.430;6.840;2024-03-08T11:53:36;37.43;;;25.53;;
15327;SDS011;7764;51.430;6.840;2024-03-08T11:56:07;36.97;;;25.17;;
15327;SDS011;7764;51.430;6.840;2024-03-08T11:58:34;34.07;;;24.00;;
15327;SDS011;7764;51.430;6.840;2024-03-08T12:01:02;34.80;;;24.57;;
15327;SDS011;7764;51.430;6.840;2024-03-08T12:03:30;35.63;;;24.80;;
15327;SDS011;7764;51.430;6.840;2024-03-08T12:05:58;41.63;;;26.67;;
15327;SDS011;7764;51.430;6.840;2024-03-08T12:08:26;36.37;;;25.53;;
15327;SDS011;7764;51.430;6.840;2024-03-08T12:10:56;34.20;;;24.00;;
15327;SDS011;7764;51.430;6.840;2024-03-08T12:13:25;34.70;;;24.50;;
15327;SDS011;7764;51.430;6.840;2024-03-08T12:15:55;35.73;;;24.50;;
15327;SDS011;7764;51.430;6.840;2024-03-08T12:18:23;37.50;;;24.33;;
15327;SDS011;7764;51.430;6.840;2024-03-08T12:20:51;34.57;;;23.00;;
15327;SDS011;7764;51.430;6.840;2024-03-08T12:23:18;32.53;;;22.27;;
15327;SDS011;7764;51.430;6.840;2024-03-08T12:25:46;38.43;;;24.83;;
15327;SDS011;7764;51.430;6.840;2024-03-08T12:28:14;34.27;;;23.50;;
15327;SDS011;7764;51.430;6.840;2024-03-08T12:30:45;36.50;;;23.63;;
15327;SDS011;7764;51.430;6.840;2024-03-08T12:33:13;39.33;;;23.93;;
15327;SDS011;7764;51.430;6.840;2024-03-08T12:35:49;33.03;;;22.23;;
15327;SDS011;7764;51.430;6.840;2024-03-08T12:38:18;34.60;;;24.03;;
15327;SDS011;7764;51.430;6.840;2024-03-08T12:40:49;31.70;;;22.03;;
15327;SDS011;7764;51.430;6.840;2024-03-08T12:43:18;36.13;;;23.77;;
15327;SDS011;7764;51.430;6.840;2024-03-08T12:45:45;33.07;;;22.50;;
15327;SDS011;7764;51.430;6.840;2024-03-08T12:48:13;31.80;;;21.77;;
15327;SDS011;7764;51.430;6.840;2024-03-08T12:50:40;30.20;;;21.97;;
15327;SDS011;7764;51.430;6.840;2024-03-08T12:53:10;32.37;;;21.57;;
15327;SDS011;7764;51.430;6.840;2024-03-08T12:55:38;25.97;;;18.50;;
15327;SDS011;7764;51.430;6.840;2024-03-08T12:58:06;26.07;;;18.50;;
15327;SDS011;7764;51.430;6.840;2024-03-08T13:00:34;24.27;;;15.57;;
15327;SDS011;7764;51.430;6.840;2024-03-08T13:03:05;21.67;;;14.30;;
15327;SDS011;7764;51.430;6.840;2024-03-08T13:05:35;24.73;;;16.10;;
15327;SDS011;7764;51.430;6.840;2024-03-08T13:08:05;25.50;;;17.23;;
15327;SDS011;7764;51.430;6.840;2024-03-08T13:10:37;25.37;;;16.60;;
15327;SDS011;7764;51.430;6.840;2024-03-08T13:13:04;15.10;;;10.30;;
15327;SDS011;7764;51.430;6.840;2024-03-08T13:15:31;16.90;;;11.20;;
15327;SDS011;7764;51.430;6.840;2024-03-08T13:18:00;16.60;;;10.63;;
15327;SDS011;7764;51.430;6.840;2024-03-08T13:20:28;18.30;;;11.00;;
15327;SDS011;7764;51.430;6.840;2024-03-08T13:22:55;18.20;;;11.60;;
15327;SDS011;7764;51.430;6.840;2024-03-08T13:25:25;15.07;;;10.60;;
15327;SDS011;7764;51.430;6.840;2024-03-08T13:27:52;18.40;;;11.00;;
15327;SDS011;7764;51.430;6.840;2024-03-08T13:30:21;16.50;;;10.33;;
15327;SDS011;7764;51.430;6.840;2024-03-08T13:32:52;14.27;;;9.73;;
15327;SDS011;7764;51.430;6.840;2024-03-08T13:35:21;14.30;;;9.57;;
15327;SDS011;7764;51.430;6.840;2024-03-08T13:37:52;13.30;;;9.73;;
15327;SDS011;7764;51.430;6.840;2024-03-08T13:40:19;13.83;;;9.00;;
15327;SDS011;7764;51.430;6.840;2024-03-08T13:42:46;13.03;;;8.90;;
15327;SDS011;7764;51.430;6.840;2024-03-08T13:45:14;15.37;;;9.93;;
15327;SDS011;7764;51.430;6.840;2024-03-08T13:47:42;15.10;;;9.63;;
15327;SDS011;7764;51.430;6.840;2024-03-08T13:50:11;12.87;;;8.80;;
15327;SDS011;7764;51.430;6.840;2024-03-08T13:52:42;12.60;;;8.70;;
15327;SDS011;7764;51.430;6.840;2024-03-08T13:55:09;15.43;;;9.50;;
15327;SDS011;7764;51.430;6.840;2024-03-08T13:57:37;14.57;;;9.40;;
15327;SDS011;7764;51.430;6.840;2024-03-08T14:00:05;12.67;;;9.30;;
15327;SDS011;7764;51.430;6.840;2024-03-08T14:02:33;15.93;;;10.07;;
15327;SDS011;7764;51.430;6.840;2024-03-08T14:05:00;15.20;;;9.57;;
15327;SDS011;7764;51.430;6.840;2024-03-08T14:07:27;14.67;;;9.27;;
15327;SDS011;7764;51.430;6.840;2024-03-08T14:09:56;12.80;;;9.00;;
15327;SDS011;7764;51.430;6.840;2024-03-08T14:12:24;15.80;;;10.67;;
15327;SDS011;7764;51.430;6.840;2024-03-08T14:14:51;13.17;;;9.20;;
15327;SDS011;7764;51.430;6.840;2024-03-08T14:17:19;16.20;;;9.50;;
15327;SDS011;7764;51.430;6.840;2024-03-08T14:19:47;13.43;;;9.27;;
15327;SDS011;7764;51.430;6.840;2024-03-08T14:22:15;16.77;;;12.27;;
15327;SDS011;7764;51.430;6.840;2024-03-08T14:24:42;15.50;;;10.27;;
15327;SDS011;7764;51.430;6.840;2024-03-08T14:27:12;14.20;;;9.60;;
15327;SDS011;7764;51.430;6.840;2024-03-08T14:29:42;15.20;;;9.60;;
15327;SDS011;7764;51.430;6.840;2024-03-08T14:32:09;14.60;;;10.27;;
15327;SDS011;7764;51.430;6.840;2024-03-08T14:34:38;16.17;;;10.43;;
15327;SDS011;7764;51.430;6.840;2024-03-08T14:37:05;19.70;;;12.73;;
15327;SDS011;7764;51.430;6.840;2024-03-08T14:39:36;15.97;;;10.20;;
15327;SDS011;7764;51.430;6.840;2024-03-08T14:42:03;14.30;;;10.50;;
15327;SDS011;7764;51.430;6.840;2024-03-08T14:44:34;15.70;;;9.93;;
15327;SDS011;7764;51.430;6.840;2024-03-08T14:47:02;14.60;;;9.90;;